createdAt,value
2022-08-02T00:01:15.380Z,93.63
2022-08-02T00:04:05.670Z,92.53
2022-08-02T00:06:54.138Z,92.84
2022-08-02T00:09:42.738Z,96.12
2022-08-02T00:12:31.187Z,96.78
2022-08-02T00:15:19.743Z,95.52
2022-08-02T00:18:08.146Z,97.92
2022-08-02T00:20:58.065Z,98.56
2022-08-02T00:24:27.793Z,97.91
2022-08-02T00:26:54.871Z,99.10
2022-08-02T00:29:53.260Z,98.61
2022-08-02T00:32:43.078Z,98.85
2022-08-02T00:35:31.555Z,98.47
2022-08-02T00:38:21.311Z,96.50
2022-08-02T00:41:14.337Z,98.00
2022-08-02T00:44:02.764Z,99.63
2022-08-02T00:46:51.313Z,100.00
2022-08-02T00:49:39.814Z,100.00
2022-08-02T00:52:28.462Z,100.00
2022-08-02T00:55:18.760Z,100.00
2022-08-02T00:58:19.344Z,100.00
2022-08-02T01:01:08.633Z,100.00
2022-08-02T01:03:57.115Z,100.00
2022-08-02T01:06:45.470Z,100.00
2022-08-02T01:09:34.022Z,100.00
2022-08-02T01:12:23.831Z,100.00
2022-08-02T01:15:13.749Z,100.00
2022-08-02T01:18:07.244Z,100.00
2022-08-02T01:21:19.814Z,100.00
2022-08-02T01:24:32.365Z,100.00
2022-08-02T01:27:34.824Z,100.00
2022-08-02T01:30:24.883Z,100.00
2022-08-02T01:33:17.999Z,100.00
2022-08-02T01:36:11.059Z,100.00
2022-08-02T01:39:02.164Z,100.00
2022-08-02T01:41:57.392Z,100.00
2022-08-02T01:44:50.371Z,100.00
2022-08-02T01:47:42.840Z,100.00
2022-08-02T01:50:34.857Z,99.83
2022-08-02T01:53:25.428Z,100.00
2022-08-02T01:56:15.169Z,100.00
2022-08-02T01:59:06.691Z,99.73
2022-08-02T02:01:57.381Z,100.00
2022-08-02T02:04:50.217Z,100.00
2022-08-02T02:07:40.617Z,100.00
2022-08-02T02:10:32.525Z,100.00
2022-08-02T02:13:28.775Z,100.00
2022-08-02T02:16:23.943Z,100.00
2022-08-02T02:19:20.960Z,100.00
2022-08-02T02:22:12.196Z,100.00
2022-08-02T02:25:01.110Z,100.00
2022-08-02T02:27:56.616Z,100.00
2022-08-02T02:30:50.897Z,100.00
2022-08-02T02:33:42.753Z,100.00
2022-08-02T02:36:34.660Z,100.00
2022-08-02T02:39:26.165Z,100.00
2022-08-02T02:42:17.395Z,100.00
2022-08-02T02:45:07.285Z,100.00
2022-08-02T02:47:57.113Z,100.00
2022-08-02T02:50:46.631Z,100.00
2022-08-02T02:54:30.605Z,100.00
2022-08-02T02:56:47.256Z,100.00
2022-08-02T02:59:42.595Z,100.00
2022-08-02T03:02:39.991Z,100.00
2022-08-02T03:05:28.706Z,100.00
2022-08-02T03:08:17.281Z,100.00
2022-08-02T03:11:09.977Z,100.00
2022-08-02T03:14:01.628Z,100.00
2022-08-02T03:16:52.229Z,100.00
2022-08-02T03:19:40.545Z,100.00
2022-08-02T03:22:28.932Z,100.00
2022-08-02T03:25:18.845Z,100.00
2022-08-02T03:28:07.437Z,100.00
2022-08-02T03:30:57.245Z,100.00
2022-08-02T03:33:46.858Z,100.00
2022-08-02T03:36:36.882Z,100.00
2022-08-02T03:39:27.168Z,100.00
2022-08-02T03:42:16.924Z,100.00
2022-08-02T03:45:09.270Z,100.00
2022-08-02T03:47:59.745Z,100.00
2022-08-02T03:50:49.376Z,100.00
2022-08-02T03:53:41.691Z,100.00
2022-08-02T03:56:30.712Z,100.00
2022-08-02T03:59:19.178Z,100.00
2022-08-02T04:02:07.878Z,100.00
2022-08-02T04:04:57.813Z,100.00
2022-08-02T04:08:33.693Z,100.00
2022-08-02T04:11:12.296Z,100.00
2022-08-02T04:14:02.839Z,100.00
2022-08-02T04:16:55.166Z,100.00
2022-08-02T04:19:49.990Z,100.00
2022-08-02T04:22:45.974Z,100.00
2022-08-02T04:25:40.583Z,100.00
2022-08-02T04:28:30.942Z,100.00
2022-08-02T04:31:21.074Z,100.00
2022-08-02T04:34:14.715Z,100.00
2022-08-02T04:37:04.071Z,100.00
2022-08-02T04:39:53.929Z,100.00
2022-08-02T04:42:42.765Z,100.00
2022-08-02T04:45:32.168Z,100.00
2022-08-02T04:48:20.728Z,100.00
2022-08-02T04:51:09.160Z,100.00
2022-08-02T04:54:06.439Z,100.00
2022-08-02T04:56:59.938Z,100.00
2022-08-02T04:59:52.789Z,99.87
2022-08-02T05:02:42.823Z,100.00
2022-08-02T05:05:31.235Z,100.00
2022-08-02T05:08:19.647Z,100.00
2022-08-02T05:11:07.951Z,100.00
2022-08-02T05:13:59.451Z,100.00
2022-08-02T05:16:48.020Z,100.00
2022-08-02T05:19:36.537Z,98.86
2022-08-02T05:22:24.962Z,98.18
2022-08-02T05:25:13.962Z,97.98
2022-08-02T05:28:02.402Z,100.00
2022-08-02T05:30:52.331Z,100.00
2022-08-02T05:33:40.736Z,99.63
2022-08-02T05:36:29.223Z,100.00
2022-08-02T05:39:18.920Z,100.00
2022-08-02T05:42:08.589Z,100.00
2022-08-02T05:44:57.407Z,100.00
2022-08-02T05:47:47.341Z,99.27
2022-08-02T05:50:40.366Z,100.00
2022-08-02T05:53:38.248Z,98.93
2022-08-02T05:56:34.222Z,96.42
2022-08-02T05:59:33.531Z,95.84
2022-08-02T06:02:31.458Z,97.17
2022-08-02T06:05:22.855Z,97.40
2022-08-02T06:08:14.414Z,95.32
2022-08-02T06:11:05.356Z,96.29
2022-08-02T06:13:54.728Z,93.96
2022-08-02T06:16:45.104Z,94.89
2022-08-02T06:19:36.593Z,95.19
2022-08-02T06:22:43.883Z,95.40
2022-08-02T06:25:50.061Z,91.98
2022-08-02T06:28:40.916Z,90.94
2022-08-02T06:31:29.974Z,89.38
2022-08-02T06:34:18.338Z,92.27
2022-08-02T06:37:12.620Z,91.92
2022-08-02T06:40:07.384Z,91.08
2022-08-02T06:43:08.250Z,92.89
2022-08-02T06:45:56.874Z,97.81
2022-08-02T06:49:05.717Z,98.32
2022-08-02T06:51:54.262Z,97.18
2022-08-02T06:54:42.692Z,97.74
2022-08-02T06:57:32.997Z,97.67
2022-08-02T07:00:21.595Z,97.77
2022-08-02T07:03:10.287Z,96.56
2022-08-02T07:05:58.741Z,96.11
2022-08-02T07:09:04.956Z,95.64
2022-08-02T07:11:55.871Z,96.22
2022-08-02T07:14:45.695Z,95.99
2022-08-02T07:17:34.281Z,93.42
2022-08-02T07:20:22.894Z,94.86
2022-08-02T07:23:11.346Z,96.53
2022-08-02T07:26:02.590Z,92.80
2022-08-02T07:28:52.723Z,93.02
2022-08-02T07:31:42.442Z,93.53
2022-08-02T07:34:30.875Z,91.57
2022-08-02T07:37:29.820Z,92.00
2022-08-02T07:40:27.962Z,88.50
2022-08-02T07:43:17.077Z,91.05
2022-08-02T07:46:05.461Z,90.76
2022-08-02T07:48:55.201Z,90.60
2022-08-02T07:51:43.676Z,91.27
2022-08-02T07:54:33.934Z,91.29
2022-08-02T07:57:22.331Z,92.78
2022-08-02T08:00:11.700Z,91.26
2022-08-02T08:03:00.491Z,91.16
2022-08-02T08:05:50.392Z,88.15
2022-08-02T08:08:38.913Z,86.09
2022-08-02T08:11:27.457Z,86.37
2022-08-02T08:14:16.978Z,85.74
2022-08-02T08:17:05.860Z,86.90
2022-08-02T08:19:54.311Z,86.56
2022-08-02T08:22:44.133Z,86.63
2022-08-02T08:25:32.667Z,85.84
2022-08-02T08:28:28.494Z,85.38
2022-08-02T08:31:16.853Z,84.48
2022-08-02T08:34:05.986Z,81.32
2022-08-02T08:36:54.443Z,80.42
2022-08-02T08:39:57.922Z,81.63
2022-08-02T08:42:47.241Z,81.01
2022-08-02T08:45:35.882Z,80.08
2022-08-02T08:48:30.416Z,81.68
2022-08-02T08:51:23.090Z,83.38
2022-08-02T08:54:16.396Z,82.12
2022-08-02T08:57:07.894Z,80.39
2022-08-02T08:59:56.426Z,81.46
2022-08-02T09:02:45.359Z,80.52
2022-08-02T09:05:36.386Z,81.32
2022-08-02T09:08:25.119Z,80.28
2022-08-02T09:11:18.123Z,80.34
2022-08-02T09:14:07.925Z,80.51
2022-08-02T09:17:08.037Z,77.56
2022-08-02T09:20:08.690Z,78.79
2022-08-02T09:23:07.672Z,80.06
2022-08-02T09:26:06.981Z,79.29
2022-08-02T09:29:02.140Z,75.75
2022-08-02T09:31:52.832Z,75.14
2022-08-02T09:34:46.178Z,75.51
2022-08-02T09:37:34.522Z,79.77
2022-08-02T09:40:37.304Z,75.85
2022-08-02T09:43:37.280Z,77.75
2022-08-02T09:46:28.297Z,80.08
2022-08-02T09:49:20.245Z,79.09
2022-08-02T09:52:08.954Z,76.51
2022-08-02T09:55:04.930Z,75.76
2022-08-02T09:57:53.444Z,75.39
2022-08-02T10:00:53.783Z,77.35
2022-08-02T10:03:58.894Z,76.78
2022-08-02T10:06:50.965Z,76.57
2022-08-02T10:09:46.438Z,74.25
2022-08-02T10:12:37.912Z,75.28
2022-08-02T10:15:27.579Z,74.63
2022-08-02T10:18:37.197Z,75.42
2022-08-02T10:21:30.870Z,74.37
2022-08-02T10:24:23.814Z,73.35
2022-08-02T10:27:16.324Z,73.32
2022-08-02T10:30:05.121Z,68.32
2022-08-02T10:32:55.197Z,68.16
2022-08-02T10:35:44.019Z,67.17
2022-08-02T10:38:33.021Z,68.15
2022-08-02T10:41:47.925Z,68.94
2022-08-02T10:44:37.881Z,69.37
2022-08-02T10:47:27.245Z,67.98
2022-08-02T10:50:15.754Z,67.35
2022-08-02T10:53:26.031Z,70.05
2022-08-02T10:56:15.004Z,69.37
2022-08-02T10:59:29.409Z,69.36
2022-08-02T11:02:36.914Z,67.73
2022-08-02T11:05:42.159Z,68.23
2022-08-02T11:08:31.089Z,69.72
2022-08-02T11:11:20.522Z,69.29
2022-08-02T11:14:30.595Z,69.54
2022-08-02T11:17:20.376Z,68.94
2022-08-02T11:20:27.366Z,66.33
2022-08-02T11:23:43.981Z,67.47
2022-08-02T11:26:44.828Z,70.39
2022-08-02T11:29:39.929Z,70.77
2022-08-02T11:32:30.713Z,71.28
2022-08-02T11:35:19.974Z,70.76
2022-08-02T11:38:20.150Z,69.52
2022-08-02T11:41:09.894Z,67.01
2022-08-02T11:43:58.974Z,67.37
2022-08-02T11:46:55.434Z,68.27
2022-08-02T11:49:44.868Z,68.72
2022-08-02T11:52:34.601Z,66.57
2022-08-02T11:55:28.630Z,66.40
2022-08-02T11:58:18.016Z,67.16
2022-08-02T12:01:07.148Z,66.46
2022-08-02T12:04:00.979Z,65.24
2022-08-02T12:06:57.037Z,65.33
2022-08-02T12:09:45.462Z,61.79
2022-08-02T12:12:33.939Z,62.84
2022-08-02T12:15:36.866Z,65.80
2022-08-02T12:18:43.215Z,64.24
2022-08-02T12:21:32.981Z,61.75
2022-08-02T12:24:30.929Z,61.40
2022-08-02T12:27:33.574Z,62.31
2022-08-02T12:30:27.472Z,62.18
2022-08-02T12:33:16.378Z,60.72
2022-08-02T12:36:15.507Z,62.09
2022-08-02T12:39:11.677Z,61.63
2022-08-02T12:42:00.056Z,61.91
2022-08-02T12:44:53.296Z,60.61
2022-08-02T12:47:47.156Z,59.24
2022-08-02T12:50:37.616Z,59.55
2022-08-02T12:53:34.665Z,60.15
2022-08-02T12:56:33.508Z,62.21
2022-08-02T12:59:38.478Z,57.66
2022-08-02T13:02:27.600Z,61.43
2022-08-02T13:05:16.177Z,58.09
2022-08-02T13:08:06.442Z,56.89
2022-08-02T13:10:54.825Z,55.43
2022-08-02T13:13:45.201Z,58.99
2022-08-02T13:16:33.801Z,58.46
2022-08-02T13:19:22.356Z,61.69
2022-08-02T13:22:10.938Z,61.56
2022-08-02T13:24:59.522Z,63.00
2022-08-02T13:27:47.963Z,60.27
2022-08-02T13:30:37.939Z,60.47
2022-08-02T13:33:26.306Z,60.36
2022-08-02T13:36:14.672Z,60.30
2022-08-02T13:39:04.123Z,57.71
2022-08-02T13:41:52.930Z,57.55
2022-08-02T13:44:41.415Z,59.76
2022-08-02T13:47:36.252Z,59.76
2022-08-02T13:50:39.980Z,56.34
2022-08-02T13:53:28.566Z,54.56
2022-08-02T13:56:17.931Z,54.76
2022-08-02T13:59:54.629Z,54.74
2022-08-02T14:02:18.101Z,54.20
2022-08-02T14:05:09.329Z,54.93
2022-08-02T14:08:00.181Z,52.82
2022-08-02T14:10:51.187Z,53.19
2022-08-02T14:13:39.657Z,52.84
2022-08-02T14:16:30.362Z,53.23
2022-08-02T14:19:22.030Z,53.12
2022-08-02T14:22:21.289Z,51.25
2022-08-02T14:25:11.048Z,52.35
2022-08-02T14:27:59.539Z,52.68
2022-08-02T14:30:48.044Z,54.03
2022-08-02T14:33:36.434Z,53.15
2022-08-02T14:36:27.171Z,54.01
2022-08-02T14:39:18.511Z,53.26
2022-08-02T14:42:07.937Z,53.68
2022-08-02T14:44:56.347Z,54.21
2022-08-02T14:47:44.807Z,55.11
2022-08-02T14:50:33.920Z,54.76
2022-08-02T14:53:22.535Z,56.39
2022-08-02T14:56:12.393Z,55.36
2022-08-02T14:59:01.033Z,57.68
2022-08-02T15:01:49.511Z,54.50
2022-08-02T15:04:42.499Z,55.23
2022-08-02T15:07:31.914Z,55.72
2022-08-02T15:10:20.246Z,54.22
2022-08-02T15:13:09.973Z,57.71
2022-08-02T15:15:58.538Z,55.98
2022-08-02T15:18:46.937Z,57.97
2022-08-02T15:21:41.766Z,57.03
2022-08-02T15:24:30.934Z,56.84
2022-08-02T15:27:19.433Z,57.72
2022-08-02T15:30:09.902Z,54.99
2022-08-02T15:32:58.273Z,52.78
2022-08-02T15:35:46.728Z,55.04
2022-08-02T15:38:35.329Z,52.71
2022-08-02T15:41:23.747Z,53.69
2022-08-02T15:44:14.021Z,56.88
2022-08-02T15:47:07.055Z,56.54
2022-08-02T15:49:55.503Z,55.35
2022-08-02T15:52:43.936Z,54.19
2022-08-02T15:55:52.036Z,54.66
2022-08-02T15:58:40.785Z,52.19
2022-08-02T16:01:38.371Z,54.04
2022-08-02T16:04:29.312Z,58.47
2022-08-02T16:07:17.745Z,59.31
2022-08-02T16:10:06.930Z,59.53
2022-08-02T16:13:15.409Z,60.66
2022-08-02T16:16:03.686Z,58.57
2022-08-02T16:18:52.180Z,59.48
2022-08-02T16:21:42.112Z,58.38
2022-08-02T16:24:30.853Z,59.71
2022-08-02T16:27:19.578Z,58.08
2022-08-02T16:30:09.704Z,57.47
2022-08-02T16:32:58.202Z,57.54
2022-08-02T16:35:47.910Z,57.91
2022-08-02T16:38:37.755Z,59.92
2022-08-02T16:41:50.204Z,59.13
2022-08-02T16:44:34.859Z,58.83
2022-08-02T16:47:36.992Z,57.56
2022-08-02T16:50:31.795Z,56.41
2022-08-02T16:53:36.603Z,56.53
2022-08-02T16:56:27.152Z,56.36
2022-08-02T16:59:15.758Z,57.94
2022-08-02T17:02:15.327Z,56.71
2022-08-02T17:05:13.474Z,56.54
2022-08-02T17:08:15.086Z,55.87
2022-08-02T17:11:05.831Z,56.24
2022-08-02T17:13:55.530Z,58.06
2022-08-02T17:16:43.904Z,58.45
2022-08-02T17:19:35.299Z,57.49
2022-08-02T17:22:26.726Z,55.66
2022-08-02T17:25:17.145Z,55.44
2022-08-02T17:28:05.984Z,55.75
2022-08-02T17:30:59.174Z,57.08
2022-08-02T17:33:49.226Z,58.05
2022-08-02T17:36:37.621Z,56.86
2022-08-02T17:39:33.575Z,57.08
2022-08-02T17:42:24.151Z,57.49
2022-08-02T17:45:25.354Z,57.51
2022-08-02T17:48:15.721Z,57.65
2022-08-02T17:51:04.336Z,57.35
2022-08-02T17:53:52.746Z,57.89
2022-08-02T17:56:45.097Z,58.33
2022-08-02T17:59:41.816Z,59.80
2022-08-02T18:02:30.655Z,58.80
2022-08-02T18:05:20.943Z,57.97
2022-08-02T18:08:09.337Z,59.14
2022-08-02T18:10:58.579Z,58.24
2022-08-02T18:13:53.169Z,59.46
2022-08-02T18:16:55.627Z,59.10
2022-08-02T18:19:53.939Z,60.52
2022-08-02T18:22:47.448Z,63.34
2022-08-02T18:25:46.647Z,65.55
2022-08-02T18:28:36.122Z,66.37
2022-08-02T18:31:25.253Z,66.91
2022-08-02T18:34:13.998Z,67.58
2022-08-02T18:37:02.913Z,67.90
2022-08-02T18:39:52.659Z,71.59
2022-08-02T18:42:41.097Z,74.01
2022-08-02T18:46:06.031Z,73.27
2022-08-02T18:48:38.471Z,72.79
2022-08-02T18:51:27.317Z,73.65
2022-08-02T18:58:18.592Z,75.62
2022-08-02T19:00:44.995Z,75.05
2022-08-02T19:03:37.011Z,75.16
2022-08-02T19:06:27.588Z,75.03
2022-08-02T19:09:17.675Z,75.60
2022-08-02T19:12:06.443Z,76.28
2022-08-02T19:14:56.459Z,77.41
2022-08-02T19:17:55.119Z,79.07
2022-08-02T19:20:48.118Z,77.43
2022-08-02T19:23:37.502Z,78.56
2022-08-02T19:26:42.838Z,80.02
2022-08-02T19:29:43.086Z,80.26
2022-08-02T19:32:59.480Z,80.01
2022-08-02T19:36:01.287Z,79.87
2022-08-02T19:38:52.252Z,80.17
2022-08-02T19:41:43.977Z,80.82
2022-08-02T19:44:35.382Z,82.93
2022-08-02T19:47:23.895Z,83.04
2022-08-02T19:50:15.045Z,82.58
2022-08-02T19:53:03.476Z,82.71
2022-08-02T19:56:01.624Z,82.94
2022-08-02T19:58:52.064Z,82.88
2022-08-02T20:01:44.772Z,82.76
2022-08-02T20:04:35.185Z,83.09
2022-08-02T20:07:54.859Z,84.18
2022-08-02T20:10:34.749Z,84.27
2022-08-02T20:13:24.778Z,84.26
2022-08-02T20:16:20.910Z,84.27
2022-08-02T20:19:16.637Z,85.38
2022-08-02T20:22:05.125Z,85.97
2022-08-02T20:24:56.748Z,86.03
2022-08-02T20:27:50.919Z,85.75
2022-08-02T20:30:40.194Z,85.91
2022-08-02T20:33:28.543Z,86.20
2022-08-02T20:36:16.995Z,86.28
2022-08-02T20:39:05.761Z,86.33
2022-08-02T20:41:57.180Z,85.59
2022-08-02T20:44:47.516Z,84.48
2022-08-02T20:47:39.603Z,84.20
2022-08-02T20:50:46.165Z,84.77
2022-08-02T20:53:54.749Z,85.80
2022-08-02T20:56:44.622Z,85.38
2022-08-02T20:59:40.857Z,86.13
2022-08-02T21:02:31.641Z,86.00
2022-08-02T21:05:20.571Z,84.24
2022-08-02T21:08:15.780Z,84.15
2022-08-02T21:11:09.380Z,84.59
2022-08-02T21:14:07.973Z,85.24
2022-08-02T21:16:59.127Z,85.25
2022-08-02T21:19:50.371Z,83.84
2022-08-02T21:22:38.866Z,83.63
2022-08-02T21:25:50.676Z,84.02
2022-08-02T21:28:44.850Z,84.54
2022-08-02T21:31:35.706Z,84.62
2022-08-02T21:34:27.185Z,84.43
2022-08-02T21:37:16.813Z,82.89
2022-08-02T21:40:06.175Z,82.65
2022-08-02T21:42:57.967Z,82.73
2022-08-02T21:45:53.782Z,82.40
2022-08-02T21:48:44.557Z,81.72
2022-08-02T21:51:34.518Z,82.10
2022-08-02T21:54:23.812Z,83.63
2022-08-02T21:57:16.230Z,85.25
2022-08-02T22:00:10.718Z,84.43
2022-08-02T22:02:59.221Z,83.37
2022-08-02T22:06:08.167Z,83.20
2022-08-02T22:08:58.061Z,83.60
2022-08-02T22:11:46.629Z,83.17
2022-08-02T22:14:36.884Z,83.01
2022-08-02T22:17:50.570Z,82.59
2022-08-02T22:20:38.639Z,82.50
2022-08-02T22:23:38.753Z,82.63
2022-08-02T22:26:39.180Z,81.99
2022-08-02T22:29:27.918Z,82.64
2022-08-02T22:32:36.441Z,82.87
2022-08-02T22:35:25.192Z,82.38
2022-08-02T22:38:18.406Z,83.44
2022-08-02T22:41:07.089Z,83.97
2022-08-02T22:43:59.207Z,83.61
2022-08-02T22:46:49.754Z,83.22
2022-08-02T22:49:45.460Z,82.69
2022-08-02T22:52:41.513Z,82.79
2022-08-02T22:55:35.556Z,83.25
2022-08-02T22:58:29.821Z,83.60
2022-08-02T22:58:58.055Z,75.89
2022-08-02T23:01:19.688Z,83.34
2022-08-02T23:04:08.285Z,83.52
2022-08-02T23:06:56.668Z,83.57
2022-08-02T23:09:45.113Z,83.41
2022-08-02T23:12:33.697Z,82.86
2022-08-02T23:15:22.335Z,83.06
2022-08-02T23:18:29.610Z,82.73
2022-08-02T23:21:46.161Z,83.01
2022-08-02T23:24:27.922Z,83.29
2022-08-02T23:27:16.742Z,83.30
2022-08-02T23:30:06.434Z,83.34
2022-08-02T23:32:54.865Z,84.30
2022-08-02T23:35:44.750Z,84.73
2022-08-02T23:38:33.131Z,83.94
2022-08-02T23:41:21.576Z,83.76
2022-08-02T23:44:14.774Z,83.30
2022-08-02T23:47:03.630Z,83.33
2022-08-02T23:49:52.128Z,84.18
2022-08-02T23:52:41.980Z,86.30
2022-08-02T23:55:30.421Z,89.02
2022-08-02T23:58:18.993Z,92.73
